Time;durP1;ratioP1;P1;durP2;ratioP2;P2;SDS_P1;SDS_P2;PMS_P1;PMS_P2;Temp;Humidity;BMP_temperature;BMP_pressure;BME280_temperature;BME280_humidity;BME280_pressure;Samples;Min_cycle;Max_cycle;Signal;HPM_P1;HPM_P2
2020/12/24 00:00:09;;;;;;;;;0.00;0.00;17.80;71.60;;;16.40;51.17;102155.09;5033101;28;8805;-60
2020/12/24 00:02:36;;;;;;;;;0.25;0.00;17.60;71.50;;;16.38;51.10;102145.47;5034334;28;8821;-59
2020/12/24 00:05:04;;;;;;;;;0.00;0.00;17.80;71.70;;;16.35;51.15;102167.03;5045585;28;8838;-59
2020/12/24 00:07:31;;;;;;;;;0.00;0.00;17.80;71.80;;;16.33;51.14;102167.13;5046296;28;8924;-59
2020/12/24 00:09:57;;;;;;;;;0.25;0.00;17.70;71.70;;;16.31;51.17;102160.19;5052885;28;8807;-59
2020/12/24 00:12:24;;;;;;;;;1.00;1.00;17.60;71.70;;;16.31;51.13;102169.06;5043204;28;8822;-60
2020/12/24 00:14:51;;;;;;;;;0.00;0.00;17.70;71.80;;;16.26;51.30;102150.72;5044914;28;8879;-60
2020/12/24 00:17:18;;;;;;;;;0.00;0.00;17.70;71.80;;;16.26;51.33;102157.88;5033122;28;8817;-60
2020/12/24 00:19:45;;;;;;;;;0.00;0.00;17.90;71.90;;;16.25;51.37;102174.81;5033133;28;9448;-60
2020/12/24 00:22:12;;;;;;;;;0.00;0.00;17.70;71.80;;;16.21;51.23;102174.16;5039542;28;8898;-60
2020/12/24 00:24:39;;;;;;;;;1.00;0.00;17.60;71.70;;;16.21;51.45;102168.84;5042169;28;8805;-59
2020/12/24 00:27:06;;;;;;;;;0.00;0.00;17.50;71.70;;;16.18;51.52;102163.72;5047626;28;8811;-59
2020/12/24 00:29:33;;;;;;;;;0.00;0.00;17.60;71.80;;;16.17;51.45;102167.31;5049337;28;8790;-60
2020/12/24 00:32:00;;;;;;;;;0.00;0.00;17.60;71.90;;;16.17;51.47;102174.47;5040274;28;8803;-60
2020/12/24 00:34:27;;;;;;;;;1.00;0.00;17.60;72.00;;;16.15;51.78;102177.22;5052767;28;9526;-59
2020/12/24 00:36:53;;;;;;;;;0.00;0.00;17.60;72.00;;;16.12;51.64;102169.44;5051760;28;8831;-60
2020/12/24 00:39:20;;;;;;;;;1.00;1.00;17.50;72.00;;;16.13;51.74;102181.84;5055231;28;8825;-59
2020/12/24 00:41:47;;;;;;;;;0.00;0.00;17.50;72.10;;;16.09;51.64;102180.31;5050732;28;8786;-59
2020/12/24 00:44:14;;;;;;;;;0.00;0.00;17.50;72.10;;;16.07;51.69;102182.22;5046079;28;8803;-60
2020/12/24 00:46:40;;;;;;;;;0.00;0.00;17.60;72.20;;;16.06;51.86;102183.19;5053166;28;8791;-59
2020/12/24 00:49:07;;;;;;;;;0.25;0.25;17.40;72.10;;;16.04;51.97;102183.28;5055680;28;8786;-60
2020/12/24 00:51:34;;;;;;;;;0.00;0.00;17.50;72.30;;;16.04;52.08;102187.78;5056357;28;8771;-59
2020/12/24 00:54:01;;;;;;;;;1.00;1.00;17.50;72.30;;;16.02;51.78;102189.69;5054968;28;9495;-59
2020/12/24 00:56:27;;;;;;;;;0.00;0.00;17.40;72.30;;;15.91;52.69;102198.41;5051149;28;8924;-60
2020/12/24 00:58:54;;;;;;;;;0.50;0.50;17.30;73.30;;;15.87;52.54;102196.88;5054913;28;8799;-59
2020/12/24 01:01:21;;;;;;;;;2.00;0.00;17.20;73.00;;;15.85;53.00;102193.47;5055427;28;8799;-60
2020/12/24 01:03:48;;;;;;;;;0.50;0.50;17.20;73.70;;;15.84;53.37;102194.41;5054538;28;8860;-60
2020/12/24 01:06:15;;;;;;;;;0.00;0.00;17.30;73.80;;;15.82;53.68;102191.88;5054900;28;8779;-60
2020/12/24 01:08:42;;;;;;;;;0.00;0.00;17.30;73.90;;;15.80;53.49;102195.59;5039956;28;8926;-60
2020/12/24 01:11:09;;;;;;;;;0.00;0.00;17.30;73.90;;;15.79;53.86;102188.53;5045891;28;8771;-60
2020/12/24 01:13:36;;;;;;;;;1.00;0.50;17.20;74.70;;;15.78;53.23;102192.16;5055942;28;8783;-59
2020/12/24 01:16:03;;;;;;;;;0.00;0.00;17.20;73.70;;;15.76;53.03;102200.25;5055389;28;8819;-59
2020/12/24 01:18:30;;;;;;;;;0.00;0.00;17.30;74.00;;;15.76;52.97;102200.25;5053854;28;8783;-60
2020/12/24 01:20:57;;;;;;;;;0.00;0.00;17.30;73.10;;;15.76;53.28;102207.41;5050827;28;8814;-60
2020/12/24 01:23:24;;;;;;;;;0.00;0.00;17.20;73.50;;;15.76;53.74;102204.72;5035800;28;8797;-60
2020/12/24 01:25:50;;;;;;;;;0.00;0.00;17.20;74.10;;;15.74;53.08;102201.31;5040386;28;8802;-59
2020/12/24 01:28:17;;;;;;;;;0.00;0.00;17.00;73.30;;;15.72;52.97;102204.09;5040764;28;8774;-60
2020/12/24 01:30:45;;;;;;;;;0.75;0.50;17.20;73.40;;;15.72;52.47;102208.53;5039904;28;8905;-59
2020/12/24 01:33:11;;;;;;;;;0.00;0.00;17.20;73.20;;;15.74;52.56;102206.63;5044557;28;8802;-58
2020/12/24 01:35:38;;;;;;;;;1.50;1.25;17.20;73.90;;;15.73;53.29;102205.78;5046671;28;8821;-60
2020/12/24 01:38:05;;;;;;;;;0.25;0.00;17.40;73.50;;;15.75;53.10;102214.53;5049900;28;8864;-60
2020/12/24 01:40:32;;;;;;;;;0.25;0.25;17.40;73.60;;;15.75;52.70;102211.88;5051213;28;9484;-60
2020/12/24 01:42:58;;;;;;;;;0.00;0.00;17.40;72.60;;;15.74;53.00;102210.16;5043772;28;8877;-60
2020/12/24 01:45:25;;;;;;;;;1.33;0.67;17.40;73.30;;;15.76;52.34;102220.72;5042162;28;8775;-60
2020/12/24 01:47:52;;;;;;;;;0.00;0.00;17.50;72.30;;;15.75;52.34;102225.19;5047397;28;8767;-60
2020/12/24 01:50:19;;;;;;;;;0.50;0.50;17.40;72.30;;;15.76;52.85;102231.38;5039997;28;9503;-60
2020/12/24 01:52:50;;;;;;;;;0.00;0.00;17.40;73.20;;;15.75;53.18;102222.53;5048378;28;8779;-60
2020/12/24 01:55:17;;;;;;;;;1.00;0.75;17.50;72.70;;;15.74;52.67;102227.94;5059525;28;8821;-60
2020/12/24 01:57:44;;;;;;;;;0.00;0.00;17.40;73.80;;;15.73;52.24;102228.91;5047450;28;8842;-60
2020/12/24 02:00:12;;;;;;;;;1.00;1.00;17.40;72.30;;;15.75;52.50;102230.53;5049098;28;8809;-60
2020/12/24 02:02:39;;;;;;;;;0.50;0.50;17.40;73.60;;;15.70;51.70;102237.09;5039534;28;9553;-60
2020/12/24 02:05:07;;;;;;;;;0.00;0.00;17.60;71.60;;;15.73;52.38;102235.09;5051375;28;8818;-59
2020/12/24 02:07:34;;;;;;;;;0.25;0.00;17.30;72.30;;;15.92;53.04;102247.22;5058578;28;8826;-59
2020/12/24 02:10:01;;;;;;;;;0.25;0.25;17.40;73.10;;;16.04;53.18;102249.09;5049273;28;8800;-59
2020/12/24 02:12:28;;;;;;;;;0.50;0.50;17.60;73.40;;;16.21;53.09;102254.16;5043871;28;8799;-59
2020/12/24 02:14:55;;;;;;;;;0.75;0.75;17.80;74.40;;;16.37;52.92;102242.47;5049575;28;8783;-59
2020/12/24 02:17:21;;;;;;;;;1.25;1.00;17.70;73.70;;;16.56;52.61;102250.06;5045768;28;8833;-59
2020/12/24 02:19:48;;;;;;;;;1.00;1.00;17.90;73.50;;;16.68;52.42;102250.06;5047625;28;8873;-59
2020/12/24 02:22:16;;;;;;;;;1.00;0.25;18.00;73.60;;;16.83;52.01;102260.69;5056631;28;8916;-59
2020/12/24 02:24:43;;;;;;;;;0.00;0.00;18.00;73.70;;;16.97;51.95;102257.94;5049439;28;8961;-59
2020/12/24 02:27:11;;;;;;;;;0.00;0.00;18.10;73.40;;;17.09;51.63;102251.72;5045142;28;8883;-59
2020/12/24 02:29:38;;;;;;;;;0.75;0.75;18.20;73.60;;;17.21;51.35;102259.84;5045781;28;8896;-59
2020/12/24 02:32:06;;;;;;;;;0.00;0.00;18.30;73.40;;;17.30;50.95;102260.06;5050249;28;8805;-58
2020/12/24 02:34:33;;;;;;;;;0.00;0.00;18.30;73.40;;;17.41;51.00;102269.13;5040248;28;9632;-59
2020/12/24 02:37:00;;;;;;;;;0.00;0.00;18.40;73.40;;;17.48;50.81;102265.91;5038860;28;8857;-59
2020/12/24 02:39:27;;;;;;;;;0.00;0.00;18.40;73.20;;;17.57;50.38;102262.53;5049250;28;8819;-60
2020/12/24 02:41:54;;;;;;;;;0.00;0.00;18.50;72.90;;;17.60;50.17;102264.13;5048881;28;8894;-60
2020/12/24 02:44:21;;;;;;;;;0.00;0.00;18.50;72.80;;;17.69;49.99;102266.16;5056301;28;8824;-60
2020/12/24 02:46:47;;;;;;;;;3.00;1.50;18.40;72.70;;;17.74;49.85;102271.19;5058738;28;8813;-60
2020/12/24 02:49:14;;;;;;;;;0.25;0.25;18.60;72.70;;;17.76;49.83;102271.94;5048083;28;8806;-61
2020/12/24 02:51:41;;;;;;;;;0.25;0.25;18.60;72.80;;;17.76;50.14;102275.44;5049346;28;8805;-60
2020/12/24 02:54:08;;;;;;;;;0.00;0.00;18.80;73.20;;;17.73;50.71;102277.47;5045652;28;8977;-60
2020/12/24 02:56:35;;;;;;;;;0.00;0.00;18.50;73.60;;;17.66;50.60;102284.25;5043498;28;8825;-60
2020/12/24 02:59:01;;;;;;;;;0.75;0.75;18.80;74.00;;;17.58;51.30;102287.47;5058640;28;8814;-60
2020/12/24 03:01:28;;;;;;;;;0.50;0.50;18.60;73.70;;;17.51;50.01;102284.38;5045626;28;8829;-60
2020/12/24 03:03:55;;;;;;;;;1.25;1.00;18.60;72.40;;;17.56;50.30;102281.38;5048428;28;8807;-60
2020/12/24 03:06:22;;;;;;;;;0.75;0.75;18.80;72.90;;;17.69;50.02;102284.88;5040006;28;8824;-60
2020/12/24 03:08:48;;;;;;;;;0.00;0.00;18.80;72.60;;;17.73;50.91;102288.16;5040211;28;8801;-60
2020/12/24 03:11:15;;;;;;;;;0.00;0.00;18.50;73.10;;;17.66;50.85;102285.09;5034437;28;8774;-60
2020/12/24 03:13:42;;;;;;;;;0.00;0.00;18.80;73.80;;;17.57;50.73;102275.91;5042874;28;8807;-60
2020/12/24 03:16:09;;;;;;;;;0.25;0.25;18.70;73.20;;;17.55;50.21;102280.53;5045519;28;8807;-61
2020/12/24 03:18:36;;;;;;;;;0.00;0.00;18.70;72.30;;;17.60;50.31;102276.66;5047521;28;8783;-60
2020/12/24 03:21:03;;;;;;;;;0.50;0.25;18.70;72.40;;;17.64;51.78;102281.66;5046375;28;8787;-60
2020/12/24 03:23:30;;;;;;;;;0.75;0.75;18.70;73.60;;;17.58;50.44;102279.47;5045139;28;8795;-61
2020/12/24 03:25:56;;;;;;;;;0.25;0.25;18.60;72.90;;;17.50;50.26;102277.34;5039882;28;8887;-60
2020/12/24 03:28:23;;;;;;;;;0.75;0.75;18.70;72.80;;;17.54;50.17;102277.97;5033560;28;8935;-60
2020/12/24 03:30:50;;;;;;;;;0.00;0.00;18.80;72.10;;;17.64;49.94;102283.50;5039799;28;8809;-60
2020/12/24 03:33:17;;;;;;;;;1.00;1.00;18.80;72.00;;;17.75;49.76;102292.44;5047838;28;9381;-61
2020/12/24 03:35:44;;;;;;;;;1.00;1.00;18.90;71.90;;;17.76;50.30;102290.63;5047833;28;8826;-60
2020/12/24 03:38:10;;;;;;;;;0.75;0.75;18.70;73.00;;;17.68;50.19;102287.63;5039159;28;8799;-60
2020/12/24 03:40:37;;;;;;;;;1.00;0.75;18.80;73.50;;;17.62;51.09;102288.94;5034684;28;8813;-60
2020/12/24 03:43:04;;;;;;;;;1.75;1.75;18.90;73.70;;;17.62;49.86;102277.41;5043810;28;8803;-60
2020/12/24 03:45:31;;;;;;;;;0.75;0.75;18.70;71.70;;;17.68;49.87;102272.47;5047271;28;8893;-61
2020/12/24 03:47:58;;;;;;;;;1.00;1.00;18.90;72.00;;;17.69;50.21;102271.50;5052408;28;8976;-60
2020/12/24 03:50:24;;;;;;;;;0.25;0.25;18.80;72.80;;;17.63;50.88;102263.06;5051771;28;9536;-60
2020/12/24 03:52:51;;;;;;;;;1.75;1.75;18.80;73.80;;;17.58;49.51;102277.63;5049968;28;8819;-60
2020/12/24 03:55:18;;;;;;;;;1.00;1.00;18.90;71.70;;;17.68;49.62;102271.59;5046036;28;8835;-60
2020/12/24 03:57:45;;;;;;;;;1.75;1.75;18.70;71.60;;;17.78;49.54;102278.88;5052226;28;8799;-60
2020/12/24 04:00:12;;;;;;;;;1.25;1.25;18.90;71.40;;;17.88;49.17;102281.72;5052988;28;8845;-60
2020/12/24 04:02:38;;;;;;;;;1.75;1.75;19.10;71.40;;;17.87;49.84;102280.03;5034384;28;8979;-61
2020/12/24 04:05:05;;;;;;;;;1.00;1.00;19.00;72.20;;;17.81;49.60;102284.97;5044298;28;8881;-61
2020/12/24 04:07:32;;;;;;;;;2.00;2.00;19.20;72.60;;;17.73;49.20;102289.03;5033201;28;8820;-60
2020/12/24 04:09:59;;;;;;;;;1.50;1.25;18.70;71.60;;;17.81;49.28;102290.31;5063148;28;8885;-61
2020/12/24 04:12:25;;;;;;;;;1.00;1.00;19.10;71.40;;;17.87;49.24;102290.72;5074510;28;8791;-61
2020/12/24 04:14:52;;;;;;;;;0.50;0.50;19.10;71.40;;;17.81;50.19;102282.28;5070505;28;8802;-61
2020/12/24 04:17:19;;;;;;;;;2.75;1.00;18.80;72.10;;;17.73;49.98;102283.69;5051133;28;8854;-59
2020/12/24 04:19:46;;;;;;;;;1.00;1.00;19.10;73.00;;;17.71;49.11;102290.97;5041189;28;8783;-61
2020/12/24 04:22:13;;;;;;;;;2.50;1.75;18.90;71.00;;;17.82;49.47;102289.34;5045736;28;8775;-61
2020/12/24 04:24:39;;;;;;;;;2.00;2.00;18.90;71.30;;;17.87;49.48;102288.06;5057603;28;8790;-60
2020/12/24 04:27:06;;;;;;;;;1.00;1.00;18.80;71.40;;;17.85;49.71;102295.31;5063747;28;8837;-60
2020/12/24 04:29:33;;;;;;;;;2.00;2.00;19.00;72.00;;;17.80;50.73;102300.16;5053510;28;8914;-62
2020/12/24 04:32:00;;;;;;;;;2.00;2.00;19.00;72.60;;;17.76;50.52;102304.84;5051136;28;8795;-61
2020/12/24 04:34:26;;;;;;;;;2.00;2.00;18.80;72.20;;;17.81;50.39;102307.22;5054550;28;8787;-62
2020/12/24 04:36:53;;;;;;;;;1.50;1.25;19.20;72.40;;;17.88;50.36;102305.78;5044396;28;8859;-62
2020/12/24 04:39:20;;;;;;;;;1.00;1.00;19.00;72.30;;;17.92;50.08;102311.78;5037389;28;8786;-62
2020/12/24 04:41:47;;;;;;;;;1.25;1.25;19.00;72.30;;;17.84;50.40;102298.97;5036848;28;8778;-62
2020/12/24 04:44:15;;;;;;;;;2.00;2.00;19.00;73.50;;;17.78;51.04;102305.59;5049098;28;8783;-62
2020/12/24 04:46:43;;;;;;;;;1.25;1.25;19.00;72.60;;;17.78;49.83;102307.38;5056537;28;8906;-61
2020/12/24 04:49:11;;;;;;;;;3.00;2.00;18.90;71.70;;;17.86;49.68;102310.41;5054430;28;8780;-62
2020/12/24 04:51:38;;;;;;;;;2.00;1.50;19.10;71.80;;;17.95;49.62;102309.72;5054186;28;8779;-62
2020/12/24 04:54:08;;;;;;;;;1.25;1.25;19.10;71.60;;;17.91;49.85;102308.25;5037788;28;8843;-62
2020/12/24 04:56:34;;;;;;;;;1.75;1.75;19.10;72.10;;;17.86;51.46;102309.53;5068856;28;8915;-62
2020/12/24 04:59:02;;;;;;;;;2.00;1.25;19.20;73.00;;;17.79;49.31;102303.78;5054444;28;8787;-62
2020/12/24 05:01:28;;;;;;;;;1.00;1.00;18.90;71.10;;;17.83;49.41;102302.59;5052542;28;8787;-62
2020/12/24 05:03:56;;;;;;;;;1.75;1.75;19.00;71.60;;;17.92;49.08;102295.75;5054497;28;8829;-62
2020/12/24 05:06:23;;;;;;;;;2.00;2.00;19.00;71.20;;;17.96;49.18;102307.91;5062593;28;8806;-62
2020/12/24 05:08:58;;;;;;;;;2.25;2.25;19.10;71.60;;;17.89;50.10;102304.84;5042744;28;8867;-62
2020/12/24 05:11:31;;;;;;;;;3.00;2.75;19.00;73.00;;;17.82;49.34;102314.25;5036212;28;8854;-62
2020/12/24 05:14:16;;;;;;;;;1.00;1.00;19.00;71.30;;;17.85;48.93;102311.38;5040235;28;8793;-62
2020/12/24 05:17:05;;;;;;;;;1.75;1.75;18.80;70.70;;;17.93;49.01;102313.47;5049886;28;8910;-62
2020/12/24 05:19:49;;;;;;;;;2.00;2.00;19.10;71.10;;;17.89;49.32;102307.50;5056830;28;8768;-62
2020/12/24 05:22:24;;;;;;;;;2.75;2.75;19.00;72.10;;;17.83;50.08;102310.63;5051328;28;8781;-62
2020/12/24 05:24:51;;;;;;;;;0.67;0.67;19.00;71.20;;;17.79;49.09;102317.13;5040492;28;8797;-62
2020/12/24 05:27:21;;;;;;;;;2.50;2.00;18.80;70.60;;;17.83;48.98;102315.97;5044519;28;8834;-62
2020/12/24 05:29:51;;;;;;;;;0.75;0.75;19.00;70.80;;;17.95;48.71;102315.06;5048203;28;8771;-62
2020/12/24 05:32:28;;;;;;;;;3.00;2.00;19.20;70.80;;;18.07;48.61;102307.97;5045571;28;8782;-62
2020/12/24 05:35:09;;;;;;;;;2.00;2.00;19.20;71.50;;;17.99;49.54;102316.56;5043917;28;8840;-62
2020/12/24 05:37:36;;;;;;;;;1.00;1.00;19.30;72.20;;;17.94;50.01;102297.34;5049749;28;8818;-62
2020/12/24 05:40:26;;;;;;;;;1.00;1.00;19.10;71.10;;;17.89;48.56;102299.50;5051265;28;8783;-63
2020/12/24 05:43:01;;;;;;;;;2.00;1.50;19.00;70.30;;;18.01;48.44;102303.06;5049178;28;8822;-63
2020/12/24 05:45:33;;;;;;;;;1.75;1.25;19.20;70.60;;;18.00;48.67;102298.69;5067008;28;8869;-63
2020/12/24 05:48:07;;;;;;;;;2.50;2.00;19.10;70.90;;;17.95;50.52;102295.50;5041422;28;8871;-63
2020/12/24 05:50:35;;;;;;;;;2.75;2.75;19.10;71.30;;;17.87;48.66;102290.72;5051122;28;8810;-63
2020/12/24 05:53:23;;;;;;;;;1.00;1.00;19.10;70.70;;;17.82;48.50;102292.88;5035651;28;8790;-63
2020/12/24 05:55:50;;;;;;;;;3.50;2.50;19.00;70.80;;;17.90;48.54;102293.16;5047875;28;8841;-63
2020/12/24 05:58:18;;;;;;;;;2.00;2.00;19.00;70.30;;;17.96;48.79;102289.19;5050419;28;8815;-63
2020/12/24 06:00:46;;;;;;;;;0.75;0.75;19.10;71.00;;;17.90;50.11;102290.50;5045308;28;8839;-63
2020/12/24 06:03:19;;;;;;;;;2.00;2.00;18.90;71.60;;;17.84;49.48;102301.66;5044206;28;8795;-63
2020/12/24 06:06:05;;;;;;;;;0.00;0.00;19.20;71.30;;;17.78;48.88;102302.91;5047250;28;8790;-63
2020/12/24 06:08:34;;;;;;;;;2.00;2.00;19.00;71.30;;;17.75;49.47;102299.59;5051877;28;8813;-63
2020/12/24 06:11:28;;;;;;;;;1.50;1.00;19.20;70.50;;;17.70;49.19;102297.25;5048673;28;8827;-60
2020/12/24 06:14:04;;;;;;;;;2.75;2.75;19.10;70.70;;;17.66;51.44;102311.81;5051231;28;8806;-61
2020/12/24 06:16:34;;;;;;;;;1.00;1.00;19.10;72.20;;;17.63;49.37;102303.16;5048637;28;8830;-62
2020/12/24 06:19:01;;;;;;;;;3.00;2.75;19.20;71.40;;;17.62;49.69;102314.81;5049456;28;9500;-60
2020/12/24 06:21:33;;;;;;;;;2.50;2.00;19.20;70.40;;;17.60;52.02;102308.72;5065548;28;8834;-60
2020/12/24 06:24:01;;;;;;;;;3.00;3.00;19.30;72.30;;;17.57;50.71;102318.66;5061636;28;8818;-60
2020/12/24 06:26:54;;;;;;;;;1.75;1.75;19.30;71.50;;;17.53;51.25;102317.19;5052193;28;8799;-60
2020/12/24 06:29:21;;;;;;;;;1.75;1.75;19.30;72.90;;;17.53;51.83;102324.34;5044343;28;8799;-60
2020/12/24 06:31:51;;;;;;;;;2.00;2.00;19.20;72.10;;;17.51;52.23;102323.59;5053517;28;8795;-61
2020/12/24 06:34:29;;;;;;;;;2.75;1.75;19.30;71.70;;;17.47;50.79;102317.59;5052329;28;8803;-60
2020/12/24 06:36:56;;;;;;;;;2.25;1.75;19.20;71.40;;;17.45;50.46;102313.34;5050000;28;8815;-60
2020/12/24 06:39:54;;;;;;;;;2.25;2.25;19.20;71.00;;;17.41;51.27;102323.41;5052184;28;8826;-60
2020/12/24 06:42:45;;;;;;;;;2.00;2.00;19.10;71.80;;;17.38;51.55;102312.94;5045161;28;8861;-60
2020/12/24 06:45:21;;;;;;;;;2.00;2.00;19.10;71.70;;;17.37;50.47;102324.56;5048278;28;8871;-60
2020/12/24 06:48:14;;;;;;;;;2.75;2.75;19.20;71.60;;;17.34;51.33;102314.94;5042846;28;8810;-60
2020/12/24 06:51:03;;;;;;;;;2.75;2.75;19.20;72.30;;;17.34;51.24;102324.78;5052385;28;8775;-60
2020/12/24 06:53:39;;;;;;;;;2.75;2.75;19.00;71.80;;;17.30;51.54;102323.28;5045330;28;8920;-60
2020/12/24 06:56:21;;;;;;;;;3.00;3.00;19.00;72.70;;;17.27;50.70;102327.00;5047628;28;8833;-60
2020/12/24 06:59:03;;;;;;;;;3.25;3.25;18.90;70.90;;;17.25;50.66;102331.63;5046704;28;8786;-60
2020/12/24 07:01:37;;;;;;;;;2.75;2.25;18.90;71.30;;;17.24;51.88;102326.38;5038229;28;8808;-60
2020/12/24 07:04:06;;;;;;;;;2.50;2.50;18.80;72.40;;;17.21;51.96;102313.25;5036482;28;8825;-60
2020/12/24 07:06:41;;;;;;;;;3.00;3.00;18.90;72.90;;;17.20;51.67;102324.88;5053060;28;8795;-60
2020/12/24 07:09:19;;;;;;;;;5.00;4.25;18.80;72.50;;;17.18;52.06;102324.16;5052982;28;8893;-60
2020/12/24 07:11:48;;;;;;;;;3.00;3.00;18.70;72.60;;;17.15;51.44;102325.22;5045539;28;8797;-60
2020/12/24 07:14:34;;;;;;;;;2.00;2.00;18.90;72.20;;;17.13;52.12;102311.97;5047891;28;8775;-60
2020/12/24 07:17:18;;;;;;;;;2.75;2.75;18.70;73.50;;;17.10;52.81;102301.50;5051874;28;8849;-61
2020/12/24 07:19:49;;;;;;;;;2.00;1.50;18.70;73.40;;;17.11;52.73;102307.69;5049536;28;8843;-60
2020/12/24 07:22:19;;;;;;;;;2.75;2.75;18.70;74.00;;;17.08;52.92;102322.13;5033948;28;8806;-60
2020/12/24 07:25:07;;;;;;;;;2.00;2.00;18.50;73.30;;;17.05;52.75;102314.31;5040419;28;8799;-60
2020/12/24 07:27:47;;;;;;;;;4.00;3.50;18.70;73.70;;;17.04;52.31;102317.94;5052625;28;8803;-60
2020/12/24 07:30:15;;;;;;;;;3.75;2.75;18.60;73.50;;;17.02;52.78;102319.00;5034931;28;8848;-60
2020/12/24 07:32:42;;;;;;;;;3.00;3.00;18.60;73.70;;;17.00;51.79;102321.78;5047090;28;8836;-60
2020/12/24 07:35:16;;;;;;;;;2.00;2.00;18.70;72.60;;;16.99;52.77;102320.06;5037093;28;8793;-61
2020/12/24 07:37:43;;;;;;;;;1.50;1.50;18.60;72.80;;;16.98;52.23;102325.53;5037696;28;8829;-61
2020/12/24 07:40:10;;;;;;;;;4.50;3.00;18.90;72.50;;;16.96;52.05;102320.28;5033625;28;8806;-60
2020/12/24 07:42:37;;;;;;;;;3.00;3.00;18.60;72.80;;;16.94;51.90;102324.88;5049163;28;8802;-60
2020/12/24 07:45:04;;;;;;;;;3.00;3.00;18.50;73.10;;;16.93;51.70;102323.16;5040897;28;8908;-60
2020/12/24 07:47:31;;;;;;;;;3.00;3.00;18.50;72.30;;;16.92;51.82;102322.31;5033947;28;8900;-60
2020/12/24 07:49:58;;;;;;;;;3.00;3.00;18.40;71.80;;;16.90;51.96;102316.22;5034208;28;8791;-60
2020/12/24 07:52:25;;;;;;;;;4.25;4.25;18.50;72.00;;;16.87;52.02;102318.25;5039966;28;8822;-61
2020/12/24 07:54:51;;;;;;;;;0.50;0.00;18.50;72.10;;;16.88;51.88;102317.28;5045351;28;8791;-60
2020/12/24 07:57:24;;;;;;;;;3.00;2.75;18.40;71.90;;;16.86;52.03;102320.06;5049889;28;8830;-60
2020/12/24 07:59:59;;;;;;;;;3.75;3.75;18.30;72.00;;;16.85;52.04;102320.19;5052242;28;8858;-60
2020/12/24 08:02:26;;;;;;;;;2.50;2.50;18.60;72.10;;;16.83;52.06;102316.75;5049070;28;8801;-60
2020/12/24 08:04:56;;;;;;;;;2.00;2.00;18.30;71.90;;;16.82;52.31;102323.06;5040802;28;8778;-60
2020/12/24 08:07:23;;;;;;;;;3.00;3.00;18.40;72.40;;;16.81;52.57;102324.00;5034405;28;8820;-61
2020/12/24 08:09:49;;;;;;;;;3.50;3.50;18.40;73.20;;;16.81;52.06;102326.66;5034203;28;8797;-60
2020/12/24 08:12:24;;;;;;;;;2.50;2.50;18.40;72.10;;;16.79;52.20;102325.91;5041831;28;8803;-60
2020/12/24 08:14:51;;;;;;;;;2.75;2.75;18.50;72.30;;;16.76;52.02;102312.75;5051474;28;8787;-60
2020/12/24 08:17:33;;;;;;;;;4.00;4.00;18.40;72.10;;;16.75;52.10;102316.38;5049144;28;8941;-60
2020/12/24 08:20:12;;;;;;;;;2.00;2.00;18.30;72.20;;;16.74;52.08;102310.19;5050411;28;8791;-61
2020/12/24 08:23:00;;;;;;;;;0.50;0.50;18.30;71.90;;;16.73;52.02;102308.47;5038962;28;8909;-61
2020/12/24 08:25:28;;;;;;;;;3.75;3.25;18.30;71.90;;;16.71;52.37;102305.94;5049832;28;8803;-60
2020/12/24 08:27:57;;;;;;;;;3.75;3.50;18.20;72.20;;;16.69;52.30;102307.84;5043591;28;8868;-60
2020/12/24 08:30:25;;;;;;;;;5.75;4.50;18.30;72.10;;;16.67;52.49;102312.41;5041419;28;8810;-60
2020/12/24 08:32:52;;;;;;;;;3.50;3.50;18.40;72.30;;;16.66;52.51;102317.84;5049024;28;8797;-60
2020/12/24 08:35:19;;;;;;;;;3.00;3.00;18.30;72.40;;;16.64;52.58;102327.78;5038358;28;8787;-59
2020/12/24 08:37:46;;;;;;;;;3.25;2.75;18.20;72.40;;;16.63;52.64;102321.56;5041696;28;8861;-60
2020/12/24 08:40:25;;;;;;;;;4.25;4.00;18.20;72.50;;;16.61;52.91;102314.63;5049328;28;8803;-59
2020/12/24 08:43:12;;;;;;;;;5.00;5.00;18.20;72.80;;;16.58;52.89;102318.38;5049603;28;8889;-59
2020/12/24 08:45:47;;;;;;;;;2.75;2.25;18.30;73.00;;;16.57;52.85;102324.66;5032412;28;8785;-59
2020/12/24 08:48:34;;;;;;;;;4.75;4.00;18.20;72.90;;;16.56;52.91;102322.94;5038114;28;8852;-60
2020/12/24 08:51:13;;;;;;;;;3.25;3.25;18.00;72.80;;;16.54;53.21;102310.66;5049442;28;8809;-59
2020/12/24 08:53:40;;;;;;;;;3.25;2.75;18.10;73.10;;;16.51;53.21;102311.72;5035472;28;8799;-59
2020/12/24 08:56:35;;;;;;;;;2.25;2.25;18.10;73.20;;;16.52;52.85;102315.28;5050732;28;8807;-59
2020/12/24 08:59:08;;;;;;;;;3.75;3.75;18.10;72.90;;;16.49;53.03;102319.84;5050477;28;8815;-60
2020/12/24 09:01:44;;;;;;;;;3.25;2.50;18.10;72.90;;;16.49;52.95;102324.34;5054956;28;8801;-59
2020/12/24 09:04:17;;;;;;;;;3.50;3.50;18.30;73.10;;;16.45;52.94;102321.00;5048413;28;8783;-59
2020/12/24 09:06:45;;;;;;;;;3.00;3.00;17.90;72.80;;;16.44;52.86;102321.97;5051045;28;8838;-58
2020/12/24 09:09:26;;;;;;;;;2.00;1.50;18.00;72.80;;;16.41;52.88;102319.50;5052830;28;8791;-60
2020/12/24 09:11:54;;;;;;;;;4.00;3.50;18.00;72.80;;;16.30;47.82;102315.81;5040691;28;8797;-60
2020/12/24 09:14:23;;;;;;;;;7.25;7.00;17.80;68.50;;;16.18;46.34;102326.34;5039101;28;8795;-60
2020/12/24 09:17:11;;;;;;;;;5.50;5.00;17.70;66.70;;;16.05;46.22;102328.09;5051011;28;8834;-60
2020/12/24 09:19:38;;;;;;;;;6.00;5.00;17.50;66.60;;;16.04;48.16;102321.91;5051558;28;8771;-59
2020/12/24 09:22:05;;;;;;;;;5.50;5.00;17.50;67.90;;;16.05;49.70;102328.09;5047891;28;9539;-59
2020/12/24 09:24:32;;;;;;;;;5.00;5.00;17.50;69.70;;;16.04;48.61;102337.03;5047000;28;8783;-60
2020/12/24 09:26:59;;;;;;;;;3.00;3.00;17.60;68.50;;;16.03;48.47;102336.19;5048776;28;8795;-59
2020/12/24 09:29:27;;;;;;;;;8.25;7.00;17.60;68.10;;;16.04;48.96;102337.91;5049133;28;8739;-60
2020/12/24 09:32:01;;;;;;;;;5.75;4.00;17.60;68.40;;;16.04;49.42;102345.03;5047249;28;8841;-59
2020/12/24 09:34:30;;;;;;;;;4.75;4.75;17.70;68.70;;;16.05;49.48;102344.06;5053983;28;8819;-59
2020/12/24 09:36:57;;;;;;;;;4.50;4.50;17.60;68.80;;;16.02;49.60;102338.94;5047871;28;8916;-60
2020/12/24 09:39:24;;;;;;;;;4.25;4.25;17.60;69.10;;;16.03;49.65;102344.19;5050040;28;8806;-59
2020/12/24 09:41:51;;;;;;;;;3.50;1.75;17.70;69.30;;;16.01;49.93;102332.78;5037746;28;8814;-60
2020/12/24 09:44:19;;;;;;;;;3.50;3.00;17.60;69.40;;;16.01;50.16;102335.44;5041481;28;8881;-60
2020/12/24 09:46:48;;;;;;;;;4.25;4.25;17.80;69.60;;;16.01;50.32;102345.25;5053668;28;8833;-60
2020/12/24 09:49:17;;;;;;;;;4.00;4.00;17.60;69.70;;;16.00;50.46;102351.50;5052398;28;8874;-59
2020/12/24 09:51:44;;;;;;;;;3.50;3.50;17.70;70.00;;;16.00;50.57;102357.72;5052912;28;8803;-60
2020/12/24 09:54:11;;;;;;;;;3.25;3.00;17.60;70.20;;;16.00;51.10;102362.16;5043394;28;8790;-60
2020/12/24 09:56:38;;;;;;;;;5.00;5.00;17.60;70.80;;;15.99;51.32;102368.47;5048606;28;9551;-59
2020/12/24 09:59:05;;;;;;;;;6.00;6.00;17.60;70.50;;;15.98;51.22;102351.63;5040063;28;8832;-60
2020/12/24 10:01:31;;;;;;;;;5.75;4.00;17.60;70.70;;;15.97;51.26;102359.72;5044692;28;8791;-60
2020/12/24 10:03:59;;;;;;;;;4.00;4.00;17.60;70.80;;;15.98;51.42;102366.78;5047011;28;8822;-60
2020/12/24 10:06:26;;;;;;;;;7.75;5.50;17.60;70.90;;;15.96;51.68;102364.19;5042426;28;8832;-59
2020/12/24 10:08:53;;;;;;;;;5.25;4.25;17.50;71.00;;;15.95;51.69;102359.81;5047633;28;8783;-59
2020/12/24 10:11:20;;;;;;;;;5.00;5.00;17.60;71.20;;;15.94;51.89;102363.44;5039368;28;8775;-60
2020/12/24 10:13:47;;;;;;;;;5.00;4.25;17.60;71.40;;;15.94;51.84;102370.56;5043599;28;9458;-59
2020/12/24 10:16:14;;;;;;;;;6.25;6.25;17.60;71.40;;;15.92;51.90;102367.16;5051181;28;8964;-60
2020/12/24 10:18:41;;;;;;;;;3.75;3.75;17.60;71.50;;;15.92;51.82;102359.16;5052691;28;8833;-59
2020/12/24 10:21:10;;;;;;;;;4.00;4.00;17.60;71.50;;;15.90;51.89;102361.03;5049874;28;8793;-59
2020/12/24 10:23:37;;;;;;;;;4.00;4.00;17.50;71.40;;;15.90;52.07;102375.25;5046043;28;8873;-59
2020/12/24 10:26:04;;;;;;;;;5.75;4.25;17.70;71.60;;;15.89;52.22;102367.34;5044729;28;8814;-59
2020/12/24 10:28:31;;;;;;;;;4.25;4.25;17.50;71.60;;;15.88;52.22;102371.81;5046890;28;8783;-59
2020/12/24 10:30:58;;;;;;;;;4.25;4.25;17.50;71.70;;;15.86;52.42;102371.06;5047923;28;8787;-59